createdAt,value
2023-05-21T00:00:15.782Z,74373.73
2023-05-21T00:01:18.548Z,74501.69
2023-05-21T00:02:21.346Z,76517.13
2023-05-21T00:03:24.230Z,75501.22
2023-05-21T00:04:26.875Z,71856.95
2023-05-21T00:05:29.809Z,74215.57
2023-05-21T00:06:32.616Z,79081.22
2023-05-21T00:07:35.715Z,73129.75
2023-05-21T00:08:38.569Z,74799.91
2023-05-21T00:09:41.450Z,71280.09
2023-05-21T00:10:44.223Z,70634.88
2023-05-21T00:11:47.090Z,67036.27
2023-05-21T00:12:50.379Z,71699.89
2023-05-21T00:13:53.044Z,71303.24
2023-05-21T00:14:56.018Z,64069.89
2023-05-21T00:15:58.919Z,69930.39
2023-05-21T00:17:01.772Z,63052.12
2023-05-21T00:18:04.809Z,62530.78
2023-05-21T00:19:07.583Z,64834.65
2023-05-21T00:20:10.492Z,67686.94
2023-05-21T00:21:13.474Z,67634.64
2023-05-21T00:22:16.463Z,64230.67
2023-05-21T00:23:19.548Z,65018.57
2023-05-21T00:24:22.199Z,65969.48
2023-05-21T00:25:24.976Z,56244.89
2023-05-21T00:26:27.643Z,59563.73
2023-05-21T00:27:30.319Z,59990.33
2023-05-21T00:28:33.184Z,63357.52
2023-05-21T00:29:35.956Z,61829.73
2023-05-21T00:30:39.040Z,60442.07
2023-05-21T00:31:41.772Z,62509.68
2023-05-21T00:32:44.710Z,59574.78
2023-05-21T00:33:47.362Z,60036.51
2023-05-21T00:34:50.329Z,64172.39
2023-05-21T00:35:53.207Z,64120.13
2023-05-21T00:36:55.877Z,63012.94
2023-05-21T00:37:58.852Z,62836.14
2023-05-21T00:39:01.830Z,58401.62
2023-05-21T00:40:05.019Z,59770.50
2023-05-21T00:41:08.199Z,57535.78
2023-05-21T00:42:11.781Z,54139.44
2023-05-21T00:43:14.761Z,54175.52
2023-05-21T00:44:18.043Z,57945.10
2023-05-21T00:45:21.030Z,53042.04
2023-05-21T00:46:23.766Z,52304.60
2023-05-21T00:47:26.981Z,53489.98
2023-05-21T00:48:30.665Z,52414.80
2023-05-21T00:49:33.850Z,53764.58
2023-05-21T00:50:36.826Z,49376.23
2023-05-21T00:51:39.804Z,49187.02
2023-05-21T00:52:42.676Z,51631.40
2023-05-21T00:53:45.654Z,50884.21
2023-05-21T00:54:48.732Z,51268.80
2023-05-21T00:55:51.712Z,49662.56
2023-05-21T00:56:54.488Z,51355.95
2023-05-21T00:57:57.358Z,50842.15
2023-05-21T00:59:00.146Z,48523.37
2023-05-21T01:00:03.217Z,48445.30
2023-05-21T01:01:06.220Z,45566.80
2023-05-21T01:02:09.106Z,49217.05
2023-05-21T01:03:12.218Z,49743.66
2023-05-21T01:04:15.221Z,51119.57
2023-05-21T01:05:18.302Z,48099.00
2023-05-21T01:06:21.271Z,47428.53
2023-05-21T01:07:24.156Z,49696.60
2023-05-21T01:08:27.123Z,49662.56
2023-05-21T01:09:30.212Z,48388.25
2023-05-21T01:10:33.189Z,48466.32
2023-05-21T01:11:36.277Z,49193.03
2023-05-21T01:12:39.140Z,47074.32
2023-05-21T01:13:42.133Z,48051.97
2023-05-21T01:14:45.208Z,49121.95
2023-05-21T01:15:48.382Z,48417.27
2023-05-21T01:16:51.266Z,49038.87
2023-05-21T01:17:54.375Z,47491.57
2023-05-21T01:18:57.379Z,48383.24
2023-05-21T01:20:00.298Z,47166.37
2023-05-21T01:21:03.271Z,48487.34
2023-05-21T01:22:06.133Z,48184.07
2023-05-21T01:23:09.011Z,48515.36
2023-05-21T01:24:11.984Z,48079.99
2023-05-21T01:25:14.763Z,48919.75
2023-05-21T01:26:17.942Z,48821.65
2023-05-21T01:27:20.918Z,50156.18
2023-05-21T01:28:23.897Z,49795.72
2023-05-21T01:29:26.769Z,47789.77
2023-05-21T01:30:29.649Z,48037.96
2023-05-21T01:31:33.133Z,48733.56
2023-05-21T01:32:35.916Z,48439.29
2023-05-21T01:33:38.678Z,48101.01
2023-05-21T01:34:41.659Z,48359.22
2023-05-21T01:35:44.527Z,48507.35
2023-05-21T01:36:47.198Z,49602.49
2023-05-21T01:37:49.979Z,50605.80
2023-05-21T01:38:52.742Z,48472.32
2023-05-21T01:39:55.516Z,49205.04
2023-05-21T01:40:58.190Z,47935.88
2023-05-21T01:42:01.070Z,47306.45
2023-05-21T01:43:03.630Z,49316.16
2023-05-21T01:44:06.503Z,49316.16
2023-05-21T01:45:09.075Z,47163.37
2023-05-21T01:46:11.857Z,47428.53
2023-05-21T01:47:14.833Z,47786.77
2023-05-21T01:48:17.593Z,47011.29
2023-05-21T01:49:20.163Z,48565.41
2023-05-21T01:50:22.834Z,47965.90
2023-05-21T01:51:25.504Z,47952.89
2023-05-21T01:52:28.177Z,46725.15
2023-05-21T01:53:30.846Z,45558.79
2023-05-21T01:54:33.722Z,46562.08
2023-05-21T01:55:36.649Z,48316.18
2023-05-21T01:56:39.468Z,46582.09
2023-05-21T01:57:42.446Z,46462.04
2023-05-21T01:58:45.220Z,46462.04
2023-05-21T01:59:47.997Z,48368.23
2023-05-21T02:00:50.768Z,48257.14
2023-05-21T02:01:53.593Z,47797.78
2023-05-21T02:03:03.216Z,49188.02
2023-05-21T02:04:07.691Z,48783.61
2023-05-21T02:05:10.662Z,48068.98
2023-05-21T02:06:13.429Z,47809.79
2023-05-21T02:07:16.406Z,46356.00
2023-05-21T02:08:19.401Z,47891.85
2023-05-21T02:09:22.251Z,45899.86
2023-05-21T02:10:25.136Z,47919.87
2023-05-21T02:11:28.123Z,47276.43
2023-05-21T02:12:30.899Z,44701.75
2023-05-21T02:13:33.655Z,43574.99
2023-05-21T02:14:36.326Z,43972.87
2023-05-21T02:15:39.099Z,44185.82
2023-05-21T02:16:41.820Z,44620.76
2023-05-21T02:17:44.494Z,44098.84
2023-05-21T02:18:47.241Z,45585.80
2023-05-21T02:19:49.985Z,46686.13
2023-05-21T02:20:52.692Z,45281.76
2023-05-21T02:21:55.427Z,45211.76
2023-05-21T02:22:58.300Z,43735.93
2023-05-21T02:24:00.974Z,46054.90
2023-05-21T02:25:03.638Z,43849.90
2023-05-21T02:26:06.312Z,45991.89
2023-05-21T02:27:09.081Z,45382.77
2023-05-21T02:28:11.859Z,45658.81
2023-05-21T02:29:14.734Z,45504.79
2023-05-21T02:30:17.402Z,45638.81
2023-05-21T02:31:20.378Z,47113.34
2023-05-21T02:32:23.262Z,46061.91
2023-05-21T02:33:26.023Z,46166.94
2023-05-21T02:34:28.930Z,44837.75
2023-05-21T02:35:31.567Z,44222.81
2023-05-21T02:36:34.241Z,45025.75
2023-05-21T02:37:37.008Z,45097.75
2023-05-21T02:38:39.791Z,46033.90
2023-05-21T02:39:42.352Z,46075.91
2023-05-21T02:40:44.917Z,45238.76
2023-05-21T02:41:47.593Z,44532.77
2023-05-21T02:42:50.262Z,44326.80
2023-05-21T02:43:52.945Z,44974.75
2023-05-21T02:44:55.800Z,44829.75
2023-05-21T02:45:59.248Z,45191.75
2023-05-21T02:47:02.055Z,45074.75
2023-05-21T02:48:05.104Z,45237.76
2023-05-21T02:49:07.812Z,44788.75
2023-05-21T02:50:10.902Z,45063.75
2023-05-21T02:51:13.671Z,44300.80
2023-05-21T02:52:16.230Z,44150.83
2023-05-21T02:53:19.130Z,44689.75
2023-05-21T02:54:22.076Z,44287.80
2023-05-21T02:55:25.368Z,42900.28
2023-05-21T02:56:28.139Z,42539.48
2023-05-21T02:57:31.120Z,42828.32
2023-05-21T02:58:34.097Z,41602.17
2023-05-21T02:59:36.871Z,41862.96
2023-05-21T03:00:39.741Z,43721.94
2023-05-21T03:01:42.848Z,44276.80
2023-05-21T03:02:45.760Z,43121.17
2023-05-21T03:03:48.735Z,45341.77
2023-05-21T03:04:51.819Z,50338.43
2023-05-21T03:05:54.740Z,44585.77
2023-05-21T03:06:57.603Z,40815.91
2023-05-21T03:08:00.575Z,41144.58
2023-05-21T03:09:03.463Z,44897.75
2023-05-21T03:10:06.447Z,51577.31
2023-05-21T03:11:09.306Z,55877.86
2023-05-21T03:12:12.283Z,46604.09
2023-05-21T03:13:15.196Z,45562.80
2023-05-21T03:14:18.134Z,47948.89
2023-05-21T03:15:20.804Z,44898.75
2023-05-21T03:16:23.834Z,44791.75
2023-05-21T03:17:26.700Z,47313.46
2023-05-21T03:18:29.527Z,46324.99
2023-05-21T03:19:32.418Z,45611.80
2023-05-21T03:20:35.384Z,49340.19
2023-05-21T03:21:38.464Z,52677.31
2023-05-21T03:22:41.548Z,51025.43
2023-05-21T03:23:44.515Z,53893.87
2023-05-21T03:24:47.290Z,52114.25
2023-05-21T03:25:50.068Z,50285.36
2023-05-21T03:26:53.248Z,49515.39
2023-05-21T03:27:56.052Z,48077.99
2023-05-21T03:28:58.693Z,48413.27
2023-05-21T03:30:01.364Z,46235.96
2023-05-21T03:31:04.132Z,47095.33
2023-05-21T03:32:06.989Z,46652.12
2023-05-21T03:33:09.820Z,43374.06
2023-05-21T03:34:12.544Z,44165.82
2023-05-21T03:35:15.224Z,45758.83
2023-05-21T03:36:17.986Z,47130.35
2023-05-21T03:37:20.557Z,43997.86
2023-05-21T03:38:23.444Z,45762.83
2023-05-21T03:39:26.533Z,46208.95
2023-05-21T03:40:29.388Z,43837.90
2023-05-21T03:41:32.374Z,44373.79
2023-05-21T03:42:35.448Z,42629.43
2023-05-21T03:43:38.319Z,43002.23
2023-05-21T03:44:41.396Z,44699.75
2023-05-21T03:45:44.787Z,44751.75
2023-05-21T03:46:47.884Z,43883.89
2023-05-21T03:47:50.902Z,42880.29
2023-05-21T03:48:53.818Z,43872.89
2023-05-21T03:49:56.799Z,43941.87
2023-05-21T03:50:59.786Z,44214.82
2023-05-21T03:52:02.768Z,43368.07
2023-05-21T03:53:05.636Z,43625.97
2023-05-21T03:54:08.397Z,44115.84
2023-05-21T03:55:11.377Z,44017.86
2023-05-21T03:56:14.355Z,43680.95
2023-05-21T03:57:17.131Z,43823.91
2023-05-21T03:58:19.801Z,44199.82
2023-05-21T03:59:22.671Z,44214.82
2023-05-21T04:00:27.514Z,43913.88
2023-05-21T04:01:30.360Z,44741.75
2023-05-21T04:02:33.410Z,44989.75
2023-05-21T04:03:39.274Z,45461.78
2023-05-21T04:04:40.984Z,44936.75
2023-05-21T04:05:43.818Z,45322.77
2023-05-21T04:06:46.886Z,45063.75
2023-05-21T04:07:49.873Z,45225.76
2023-05-21T04:08:52.944Z,46833.20
2023-05-21T04:09:55.822Z,46782.17
2023-05-21T04:10:58.690Z,47512.58
2023-05-21T04:12:01.671Z,48325.20
2023-05-21T04:13:04.546Z,48375.23
2023-05-21T04:14:07.633Z,48182.07
2023-05-21T04:15:10.510Z,49635.53
2023-05-21T04:16:13.328Z,51397.01
2023-05-21T04:17:16.552Z,49126.96
2023-05-21T04:18:19.432Z,51777.65
2023-05-21T04:19:22.563Z,51826.74
2023-05-21T04:20:25.389Z,53547.11
2023-05-21T04:21:28.065Z,52784.52
2023-05-21T04:22:31.045Z,50997.38
2023-05-21T04:23:34.005Z,53425.84
2023-05-21T04:24:37.091Z,52077.18
2023-05-21T04:25:39.856Z,52665.29
2023-05-21T04:26:42.635Z,50796.08
2023-05-21T04:27:45.726Z,47754.75
2023-05-21T04:28:48.586Z,52438.85
2023-05-21T04:29:51.572Z,54377.00
2023-05-21T04:30:54.458Z,53988.09
2023-05-21T04:31:57.319Z,55200.04
2023-05-21T04:33:00.305Z,51701.52
2023-05-21T04:34:03.171Z,51122.57
2023-05-21T04:35:06.140Z,55470.75
2023-05-21T04:36:09.946Z,55876.85
2023-05-21T04:37:15.784Z,50671.90
2023-05-21T04:38:18.655Z,49487.36
2023-05-21T04:39:24.394Z,52332.65
2023-05-21T04:40:27.583Z,51982.01
2023-05-21T04:41:30.247Z,51371.97
2023-05-21T04:42:33.009Z,54711.80
2023-05-21T04:43:35.696Z,54284.78
2023-05-21T04:44:38.370Z,52313.61
2023-05-21T04:45:41.338Z,50866.18
2023-05-21T04:46:44.156Z,52394.77
2023-05-21T04:47:47.140Z,51620.38
2023-05-21T04:48:49.758Z,48514.36
2023-05-21T04:49:52.654Z,49922.88
2023-05-21T04:50:55.604Z,51353.94
2023-05-21T04:51:58.588Z,53979.07
2023-05-21T04:53:01.496Z,54471.22
2023-05-21T04:54:04.437Z,52470.91
2023-05-21T04:55:07.734Z,56033.29
2023-05-21T04:56:10.806Z,56206.78
2023-05-21T04:57:13.581Z,55929.00
2023-05-21T04:58:16.352Z,55768.55
2023-05-21T04:59:19.147Z,54234.66
2023-05-21T05:00:21.897Z,56949.96
2023-05-21T05:01:25.567Z,55271.23
2023-05-21T05:02:28.580Z,55639.20
2023-05-21T05:03:31.474Z,54564.45
2023-05-21T05:04:34.128Z,59742.40
2023-05-21T05:05:37.342Z,58940.49
2023-05-21T05:06:40.583Z,57533.77
2023-05-21T05:07:43.443Z,56063.37
2023-05-21T05:08:46.362Z,56877.74
2023-05-21T05:09:49.011Z,64182.43
2023-05-21T05:10:51.867Z,61476.25
2023-05-21T05:11:54.786Z,64717.06
2023-05-21T05:12:57.621Z,59840.77
2023-05-21T05:14:00.490Z,61173.00
2023-05-21T05:15:03.387Z,57262.92
2023-05-21T05:16:06.272Z,59520.58
2023-05-21T05:17:09.529Z,59303.79
2023-05-21T05:18:12.302Z,62485.58
2023-05-21T05:19:15.337Z,61603.78
2023-05-21T05:20:18.256Z,63486.12
2023-05-21T05:21:21.234Z,65993.62
2023-05-21T05:22:24.331Z,69671.78
2023-05-21T05:23:27.189Z,67908.21
2023-05-21T05:24:30.159Z,70209.16
2023-05-21T05:25:33.134Z,73675.64
2023-05-21T05:26:35.925Z,75082.02
2023-05-21T05:27:38.890Z,75237.20
2023-05-21T05:28:41.871Z,76257.08
2023-05-21T05:29:44.748Z,76388.11
2023-05-21T05:30:47.829Z,76098.84
2023-05-21T05:31:50.612Z,75942.63
2023-05-21T05:32:53.805Z,79078.20
2023-05-21T05:33:56.764Z,80347.23
2023-05-21T05:35:01.540Z,81860.94
2023-05-21T05:36:04.143Z,81522.83
2023-05-21T05:37:07.137Z,81514.75
2023-05-21T05:38:10.218Z,82974.36
2023-05-21T05:39:13.178Z,82383.80
2023-05-21T05:40:16.152Z,81313.92
2023-05-21T05:41:19.032Z,81661.09
2023-05-21T05:42:21.597Z,79104.42
2023-05-21T05:43:24.509Z,81704.49
2023-05-21T05:44:27.142Z,82011.33
2023-05-21T05:45:29.810Z,80205.99
2023-05-21T05:46:32.783Z,80850.73
2023-05-21T05:47:35.401Z,81021.27
2023-05-21T05:48:38.436Z,80208.01
2023-05-21T05:49:41.208Z,79735.88
2023-05-21T05:50:43.770Z,81908.38
2023-05-21T05:51:46.563Z,81186.77
2023-05-21T05:52:49.116Z,80951.64
2023-05-21T05:53:51.777Z,82482.72
2023-05-21T05:54:54.559Z,84522.38
2023-05-21T05:55:57.561Z,83310.58
2023-05-21T05:57:00.330Z,82993.55
2023-05-21T05:58:02.976Z,79848.86
2023-05-21T05:59:05.978Z,77972.91
2023-05-21T06:00:08.824Z,74050.36
2023-05-21T06:01:11.691Z,72496.31
2023-05-21T06:02:14.390Z,73734.06
2023-05-21T06:03:17.212Z,76746.95
2023-05-21T06:04:19.821Z,73764.28
2023-05-21T06:05:22.599Z,74586.31
2023-05-21T06:06:25.375Z,76170.39
2023-05-21T06:07:28.030Z,74159.16
2023-05-21T06:08:30.710Z,71256.94
2023-05-21T06:09:33.265Z,74322.36
2023-05-21T06:10:35.829Z,70562.41
2023-05-21T06:11:38.596Z,67773.44
2023-05-21T06:12:41.380Z,67308.80
2023-05-21T06:13:44.350Z,68493.63
2023-05-21T06:14:47.544Z,60562.54
2023-05-21T06:15:50.668Z,65755.36
2023-05-21T06:16:53.492Z,67845.85
2023-05-21T06:17:56.434Z,76260.09
2023-05-21T06:18:59.276Z,80225.16
2023-05-21T06:20:02.009Z,78765.53
2023-05-21T06:21:05.197Z,78922.88
2023-05-21T06:22:07.767Z,76771.14
2023-05-21T06:23:10.624Z,77969.88
2023-05-21T06:24:13.510Z,80322.02
2023-05-21T06:25:16.691Z,76615.91
2023-05-21T06:26:19.453Z,78395.42
2023-05-21T06:27:22.343Z,79177.05
2023-05-21T06:28:25.303Z,79315.23
2023-05-21T06:29:28.188Z,78995.48
2023-05-21T06:30:31.053Z,79643.06
2023-05-21T06:31:34.141Z,80476.39
2023-05-21T06:32:37.093Z,80793.22
2023-05-21T06:33:41.060Z,81631.83
2023-05-21T06:34:43.898Z,80115.19
2023-05-21T06:35:46.976Z,79810.52
2023-05-21T06:36:50.764Z,80452.17
2023-05-21T06:37:53.549Z,82367.64
2023-05-21T06:38:56.325Z,81620.72
2023-05-21T06:39:58.986Z,81783.22
2023-05-21T06:41:01.758Z,83292.40
2023-05-21T06:42:04.524Z,79903.33
2023-05-21T06:43:07.296Z,80891.09
2023-05-21T06:44:10.075Z,81224.10
2023-05-21T06:45:12.845Z,81919.47
2023-05-21T06:46:15.640Z,82848.17
2023-05-21T06:47:18.294Z,82426.19
2023-05-21T06:48:21.276Z,83204.56
2023-05-21T06:49:24.064Z,82256.61
2023-05-21T06:50:26.708Z,83821.51
2023-05-21T06:51:29.892Z,84055.79
2023-05-21T06:52:32.787Z,84041.66
2023-05-21T06:53:35.647Z,84481.98
2023-05-21T06:54:38.519Z,84425.42
2023-05-21T06:55:41.494Z,84631.45
2023-05-21T06:56:44.580Z,85352.67
2023-05-21T06:57:47.240Z,86093.21
2023-05-21T06:58:50.213Z,87517.09
2023-05-21T06:59:53.215Z,87524.16
2023-05-21T07:00:56.306Z,86238.71
2023-05-21T07:01:59.179Z,86466.06
2023-05-21T07:03:02.176Z,85296.09
2023-05-21T07:04:04.900Z,85148.62
2023-05-21T07:05:07.872Z,86534.77
2023-05-21T07:06:10.770Z,87535.28
2023-05-21T07:07:14.032Z,88358.11
2023-05-21T07:08:17.014Z,89618.97
2023-05-21T07:09:19.801Z,90069.00
2023-05-21T07:10:22.753Z,89960.78
2023-05-21T07:11:25.530Z,89660.42
2023-05-21T07:12:28.728Z,90962.15
2023-05-21T07:13:31.692Z,90836.71
2023-05-21T07:14:34.986Z,90573.71
2023-05-21T07:15:38.210Z,91998.16
2023-05-21T07:16:41.166Z,92257.20
2023-05-21T07:17:44.247Z,91998.16
2023-05-21T07:18:47.164Z,91480.13
2023-05-21T07:19:49.858Z,91350.63
2023-05-21T07:20:52.842Z,91065.33
2023-05-21T07:21:55.702Z,90383.55
2023-05-21T07:22:58.997Z,91221.13
2023-05-21T07:24:01.874Z,91998.16
2023-05-21T07:25:04.776Z,91609.63
2023-05-21T07:26:07.827Z,91221.13
2023-05-21T07:27:24.608Z,91016.77
2023-05-21T07:28:15.515Z,91868.65
2023-05-21T07:29:18.601Z,91480.13
2023-05-21T07:30:21.366Z,91480.13
2023-05-21T07:31:24.373Z,91868.65
2023-05-21T07:32:27.245Z,91221.13
2023-05-21T07:33:30.199Z,91609.63
2023-05-21T07:34:33.085Z,91739.13
2023-05-21T07:35:36.257Z,91868.65
2023-05-21T07:36:39.643Z,93034.44
2023-05-21T07:37:42.638Z,92257.20
2023-05-21T07:38:45.937Z,93164.00
2023-05-21T07:39:49.103Z,92775.34
2023-05-21T07:40:52.063Z,92645.80
2023-05-21T07:41:54.841Z,93811.83
2023-05-21T07:42:57.407Z,92904.89
2023-05-21T07:44:00.211Z,93941.41
2023-05-21T07:45:02.961Z,94589.36
2023-05-21T07:46:05.519Z,95107.80
2023-05-21T07:47:08.290Z,93811.83
2023-05-21T07:48:11.077Z,93552.69
2023-05-21T07:49:13.942Z,94848.58
2023-05-21T07:50:16.508Z,94978.19
2023-05-21T07:51:19.377Z,94718.97
2023-05-21T07:52:22.619Z,95496.67
2023-05-21T07:53:25.434Z,95107.80
2023-05-21T07:54:28.518Z,95367.05
2023-05-21T07:55:31.494Z,95107.80
2023-05-21T07:56:34.478Z,94848.58
2023-05-21T07:57:37.146Z,95755.94
2023-05-21T07:58:40.118Z,95885.58
2023-05-21T07:59:43.198Z,97830.70
2023-05-21T08:00:46.183Z,98479.27
2023-05-21T08:01:49.044Z,98219.83
2023-05-21T08:02:51.939Z,98090.11
2023-05-21T08:03:54.985Z,98090.11
2023-05-21T08:04:58.371Z,99517.22
2023-05-21T08:06:02.086Z,100036.29
2023-05-21T08:07:05.069Z,100815.02
2023-05-21T08:08:07.942Z,100944.82
2023-05-21T08:09:10.913Z,100295.84
2023-05-21T08:10:13.709Z,101334.25
2023-05-21T08:11:16.948Z,101334.25
2023-05-21T08:12:19.918Z,101853.55
2023-05-21T08:13:24.957Z,102502.78
2023-05-21T08:14:28.032Z,102113.23
2023-05-21T08:15:31.241Z,101204.44
2023-05-21T08:16:34.477Z,101204.44
2023-05-21T08:17:37.614Z,102243.08
2023-05-21T08:18:40.753Z,102502.78
2023-05-21T08:19:43.634Z,101853.55
2023-05-21T08:20:47.118Z,102892.36
2023-05-21T08:21:52.742Z,103152.11
2023-05-21T08:22:55.017Z,103152.11
2023-05-21T08:23:57.994Z,103152.11
2023-05-21T08:25:01.393Z,103411.87
2023-05-21T08:26:04.476Z,103411.87
2023-05-21T08:27:07.722Z,104061.34
2023-05-21T08:28:10.820Z,104970.77
2023-05-21T08:29:14.018Z,105750.45
2023-05-21T08:30:17.292Z,106530.28
2023-05-21T08:31:20.690Z,106660.27
2023-05-21T08:32:23.891Z,107180.25
2023-05-21T08:33:27.358Z,107570.28
2023-05-21T08:34:30.653Z,107960.35
2023-05-21T08:35:34.026Z,108480.50
2023-05-21T08:36:37.098Z,108870.66
2023-05-21T08:37:40.183Z,109651.09
2023-05-21T08:38:42.952Z,110561.77
2023-05-21T08:39:46.030Z,111082.26
2023-05-21T08:40:49.213Z,111602.80
2023-05-21T08:41:52.205Z,112123.42
2023-05-21T08:42:55.063Z,111993.27
2023-05-21T08:43:58.054Z,111732.95
2023-05-21T08:45:01.029Z,111993.27
2023-05-21T08:46:03.971Z,111732.95
2023-05-21T08:47:06.877Z,111602.80
2023-05-21T08:48:09.848Z,111472.66
2023-05-21T08:49:12.622Z,111602.80
2023-05-21T08:50:15.697Z,111732.95
2023-05-21T08:51:18.776Z,111863.11
2023-05-21T08:52:21.854Z,111993.27
2023-05-21T08:53:28.661Z,112123.42
2023-05-21T08:54:29.045Z,112513.92
2023-05-21T08:55:32.120Z,112904.47
2023-05-21T08:56:35.203Z,113034.66
2023-05-21T08:57:38.380Z,113555.46
2023-05-21T08:58:41.456Z,113815.89
2023-05-21T08:59:44.335Z,113946.10
2023-05-21T09:00:47.414Z,113685.67
2023-05-21T09:01:50.353Z,113685.67
2023-05-21T09:02:53.204Z,113555.46
2023-05-21T09:04:05.054Z,113815.89
2023-05-21T09:05:00.167Z,113946.10
2023-05-21T09:06:02.926Z,114206.55
2023-05-21T09:07:05.683Z,114336.78
2023-05-21T09:08:08.559Z,114467.02
2023-05-21T09:09:11.433Z,114727.50
2023-05-21T09:10:14.317Z,114857.75
2023-05-21T09:11:17.078Z,115118.26
2023-05-21T09:12:19.850Z,115248.52
2023-05-21T09:13:22.752Z,115509.05
2023-05-21T09:14:25.533Z,115769.59
2023-05-21T09:15:28.384Z,116030.16
2023-05-21T09:16:31.381Z,116030.16
2023-05-21T09:17:34.301Z,116160.45
2023-05-21T09:18:37.200Z,116160.45
2023-05-21T09:19:40.026Z,116030.16
2023-05-21T09:20:42.860Z,116030.16
2023-05-21T09:21:45.622Z,116030.16
2023-05-21T09:22:48.696Z,116160.45
2023-05-21T09:23:52.199Z,116421.05
2023-05-21T09:24:55.163Z,116551.34
2023-05-21T09:25:58.249Z,116681.65
2023-05-21T09:27:01.230Z,116811.96
2023-05-21T09:28:04.203Z,116942.28
2023-05-21T09:29:07.211Z,116942.28
2023-05-21T09:30:10.060Z,116811.96
2023-05-21T09:31:12.958Z,116811.96
2023-05-21T09:32:15.697Z,116681.65
2023-05-21T09:33:18.471Z,116942.28
2023-05-21T09:34:21.241Z,116811.96
2023-05-21T09:35:24.128Z,116811.96
2023-05-21T09:36:26.895Z,116811.96
2023-05-21T09:37:29.762Z,116811.96
2023-05-21T09:38:32.436Z,116681.65
2023-05-21T09:39:35.921Z,116551.34
2023-05-21T09:40:39.168Z,116681.65
2023-05-21T09:41:42.188Z,116811.96
2023-05-21T09:42:45.468Z,116811.96
2023-05-21T09:43:48.553Z,116811.96
2023-05-21T09:44:51.841Z,116811.96
2023-05-21T09:45:55.057Z,116811.96
2023-05-21T09:46:58.432Z,116942.28
2023-05-21T09:48:01.471Z,116942.28
2023-05-21T09:49:04.454Z,116942.28
2023-05-21T09:50:07.767Z,116942.28
2023-05-21T09:51:11.120Z,116942.28
2023-05-21T09:52:14.210Z,116942.28
2023-05-21T09:53:17.180Z,116942.28
2023-05-21T09:54:20.265Z,116942.28
2023-05-21T09:55:23.657Z,116942.28
2023-05-21T09:56:26.636Z,116942.28
2023-05-21T09:57:29.708Z,116942.28
2023-05-21T09:58:32.692Z,116943.30
2023-05-21T09:59:35.778Z,116943.30
2023-05-21T10:00:38.946Z,116943.30
2023-05-21T10:01:42.361Z,116943.30
2023-05-21T10:02:45.365Z,116943.30
2023-05-21T10:03:50.569Z,116943.30
2023-05-21T10:04:52.910Z,116943.30
2023-05-21T10:05:56.289Z,116943.30
2023-05-21T10:06:59.573Z,116943.30
2023-05-21T10:08:03.206Z,116943.30
2023-05-21T10:09:06.306Z,116943.30
2023-05-21T10:10:09.629Z,116943.30
2023-05-21T10:11:12.916Z,116943.30
2023-05-21T10:12:15.897Z,116943.30
2023-05-21T10:13:18.771Z,116943.30
2023-05-21T10:14:21.961Z,116943.30
2023-05-21T10:15:24.935Z,116943.30
2023-05-21T10:16:28.318Z,116943.30
2023-05-21T10:17:31.489Z,116943.30
2023-05-21T10:18:34.487Z,116943.30
2023-05-21T10:19:37.549Z,116943.30
2023-05-21T10:20:41.140Z,116943.30
2023-05-21T10:21:44.219Z,116943.30
2023-05-21T10:22:47.216Z,116943.30
2023-05-21T10:23:50.379Z,116943.30
2023-05-21T10:24:53.151Z,116943.30
2023-05-21T10:25:56.027Z,116943.30
2023-05-21T10:26:59.106Z,116943.30
2023-05-21T10:28:01.874Z,116943.30
2023-05-21T10:29:04.553Z,116943.30
2023-05-21T10:30:07.427Z,116943.30
2023-05-21T10:31:10.319Z,116943.30
2023-05-21T10:32:13.302Z,116943.30
2023-05-21T10:33:16.113Z,116943.30
2023-05-21T10:34:19.025Z,116943.30
2023-05-21T10:35:22.409Z,116943.30
2023-05-21T10:36:25.507Z,116943.30
2023-05-21T10:37:28.469Z,116943.30
2023-05-21T10:38:31.648Z,116943.30
2023-05-21T10:39:34.826Z,116943.30
2023-05-21T10:40:38.162Z,116943.30
2023-05-21T10:41:41.420Z,116943.30
2023-05-21T10:42:44.275Z,116943.30
2023-05-21T10:43:47.351Z,116943.30
2023-05-21T10:44:50.231Z,116943.30
2023-05-21T10:45:53.233Z,116943.30
2023-05-21T10:46:55.973Z,116943.30
2023-05-21T10:47:58.895Z,116943.30
2023-05-21T10:49:01.639Z,116943.30
2023-05-21T10:50:04.609Z,116943.30
2023-05-21T10:51:07.583Z,116943.30
2023-05-21T10:52:10.247Z,116943.30
2023-05-21T10:53:13.122Z,116943.30
2023-05-21T10:54:19.116Z,116943.30
2023-05-21T10:55:21.849Z,116943.30
2023-05-21T10:56:24.613Z,116943.30
2023-05-21T10:57:27.502Z,116943.30
2023-05-21T10:58:30.575Z,116943.30
2023-05-21T10:59:33.238Z,116943.30
2023-05-21T11:00:36.166Z,116943.30
2023-05-21T11:01:39.188Z,116943.30
2023-05-21T11:02:42.132Z,116943.30
2023-05-21T11:03:45.302Z,116943.30
2023-05-21T11:04:48.232Z,116943.30
2023-05-21T11:05:51.323Z,116943.30
2023-05-21T11:06:54.485Z,116943.30
2023-05-21T11:07:57.658Z,116943.30
2023-05-21T11:09:00.772Z,116943.30
2023-05-21T11:10:03.727Z,116943.30
2023-05-21T11:11:06.731Z,116943.30
2023-05-21T11:12:09.896Z,116943.30
2023-05-21T11:13:12.867Z,116943.30
2023-05-21T11:14:15.861Z,116943.30
2023-05-21T11:15:18.816Z,116943.30
2023-05-21T11:16:22.105Z,116943.30
2023-05-21T11:17:25.038Z,116943.30
2023-05-21T11:18:28.358Z,116943.30
2023-05-21T11:19:34.059Z,116943.30
2023-05-21T11:20:36.221Z,116943.30
2023-05-21T11:21:39.443Z,116943.30
2023-05-21T11:22:42.626Z,116943.30
2023-05-21T11:23:45.807Z,116943.30
2023-05-21T11:24:50.874Z,116943.30
2023-05-21T11:25:53.809Z,116943.30
2023-05-21T11:26:56.990Z,116943.30
2023-05-21T11:27:59.866Z,116943.30
2023-05-21T11:29:02.654Z,116943.30
2023-05-21T11:30:05.724Z,116943.30
2023-05-21T11:31:08.422Z,116943.30
2023-05-21T11:32:11.270Z,116943.30
2023-05-21T11:33:14.388Z,116943.30
2023-05-21T11:34:17.216Z,116943.30
2023-05-21T11:35:20.002Z,116943.30
2023-05-21T11:36:22.771Z,116943.30
2023-05-21T11:37:25.532Z,116943.30
2023-05-21T11:38:28.613Z,116943.30
2023-05-21T11:39:31.593Z,116943.30
2023-05-21T11:40:35.143Z,116943.30
2023-05-21T11:41:38.258Z,116943.30
2023-05-21T11:42:41.550Z,116943.30
2023-05-21T11:43:44.730Z,116943.30
2023-05-21T11:44:47.920Z,116943.30
2023-05-21T11:45:51.198Z,116943.30
2023-05-21T11:46:54.314Z,116943.30
2023-05-21T11:47:57.301Z,116943.30
2023-05-21T11:49:00.432Z,116943.30
2023-05-21T11:50:03.611Z,116943.30
2023-05-21T11:51:08.543Z,116943.30
2023-05-21T11:52:11.522Z,116943.30
2023-05-21T11:53:14.491Z,116943.30
2023-05-21T11:54:17.569Z,116943.30
2023-05-21T11:55:20.546Z,116943.30
2023-05-21T11:56:23.420Z,116943.30
2023-05-21T11:57:26.089Z,116943.30
2023-05-21T11:58:29.066Z,116943.30
2023-05-21T11:59:31.841Z,116943.30
2023-05-21T12:00:34.971Z,116943.30
2023-05-21T12:01:38.121Z,116943.30
2023-05-21T12:02:41.663Z,116943.30
2023-05-21T12:03:44.523Z,116943.30
2023-05-21T12:04:47.659Z,116943.30
2023-05-21T12:05:50.770Z,116943.30
2023-05-21T12:06:53.703Z,116943.30
2023-05-21T12:07:56.895Z,116943.30
2023-05-21T12:08:59.771Z,116943.30
2023-05-21T12:10:02.753Z,116943.30
2023-05-21T12:11:05.505Z,116943.30
2023-05-21T12:12:08.382Z,116943.30